Terminal Aerodrome Forecast
Issued by NWS

Home | Current Version | Previous Version | Text Only | Print | Product List | Glossary On
Versions: 1 2 3 4 5 6 7 8 9 10 11 12 13 14 15 16 17 18 19 20 21
000
FTUS41 KPHI 011100
TAFPNE
TAF
KPNE 011120Z 0112/0212 25005KT P6SM OVC045
     FM012100 26005KT P6SM OVC025
     FM020000 VRB04KT 2SM -SN BKN010
     FM020700 12009KT 1SM -FZRAPL BKN007
     FM021100 15009KT 2SM RA BKN007=

USA.gov is the U.S. government's official web portal to all federal, state and local government web resources and services.